createdAt,value
2022-09-14T00:01:25.349Z,8.10
2022-09-14T00:03:59.279Z,8.00
2022-09-14T00:06:26.973Z,8.10
2022-09-14T00:08:55.437Z,7.78
2022-09-14T00:11:24.499Z,10.60
2022-09-14T00:13:52.189Z,8.10
2022-09-14T00:16:27.165Z,8.88
2022-09-14T00:18:56.711Z,8.10
2022-09-14T00:21:24.303Z,8.40
2022-09-14T00:23:51.056Z,7.90
2022-09-14T00:26:20.326Z,8.40
2022-09-14T00:28:50.177Z,8.90
2022-09-14T00:31:18.108Z,8.43
2022-09-14T00:33:49.869Z,8.40
2022-09-14T00:36:26.801Z,7.97
2022-09-14T00:38:58.056Z,8.13
2022-09-14T00:41:27.819Z,8.05
2022-09-14T00:43:57.064Z,8.68
2022-09-14T00:46:25.167Z,8.25
2022-09-14T00:48:53.022Z,8.80
2022-09-14T00:51:21.589Z,8.10
2022-09-14T00:53:49.086Z,8.27
2022-09-14T00:56:16.049Z,10.65
2022-09-14T00:58:46.023Z,8.60
2022-09-14T01:01:13.286Z,8.73
2022-09-14T01:03:40.034Z,8.27
2022-09-14T01:06:31.620Z,9.23
2022-09-14T01:09:27.757Z,8.32
2022-09-14T01:12:10.848Z,8.75
2022-09-14T01:15:04.733Z,8.52
2022-09-14T01:18:07.974Z,9.00
2022-09-14T01:20:37.982Z,8.27
2022-09-14T01:23:36.479Z,8.25
2022-09-14T01:26:34.034Z,8.48
2022-09-14T01:29:10.018Z,9.10
2022-09-14T01:31:50.302Z,8.32
2022-09-14T01:34:28.871Z,10.27
2022-09-14T01:37:13.194Z,8.75
2022-09-14T01:39:48.809Z,8.70
2022-09-14T01:42:18.623Z,8.77
2022-09-14T01:44:49.190Z,10.45
2022-09-14T01:47:26.347Z,9.55
2022-09-14T01:49:59.468Z,8.77
2022-09-14T01:52:35.349Z,9.70
2022-09-14T01:55:09.787Z,10.45
2022-09-14T01:57:56.847Z,9.45
2022-09-14T02:00:24.421Z,8.50
2022-09-14T02:03:00.383Z,8.50
2022-09-14T02:05:52.543Z,12.82
2022-09-14T02:08:19.383Z,9.20
2022-09-14T02:10:46.173Z,9.30
2022-09-14T02:13:13.867Z,8.68
2022-09-14T02:15:40.633Z,9.57
2022-09-14T02:18:07.513Z,9.35
2022-09-14T02:20:50.747Z,11.13
2022-09-14T02:23:17.994Z,10.27
2022-09-14T02:25:46.443Z,9.00
2022-09-14T02:28:13.435Z,9.13
2022-09-14T02:31:28.833Z,8.68
2022-09-14T02:34:14.449Z,9.65
2022-09-14T02:36:47.819Z,9.27
2022-09-14T02:39:40.685Z,9.88
2022-09-14T02:42:37.184Z,8.55
2022-09-14T02:45:10.898Z,10.27
2022-09-14T02:47:56.199Z,8.65
2022-09-14T02:50:41.370Z,9.40
2022-09-14T02:53:37.887Z,8.88
2022-09-14T02:56:08.337Z,8.60
2022-09-14T02:58:37.054Z,8.95
2022-09-14T03:01:05.417Z,8.10
2022-09-14T03:03:35.591Z,8.40
2022-09-14T03:06:03.269Z,9.93
2022-09-14T03:08:30.065Z,9.02
2022-09-14T03:10:57.112Z,9.73
2022-09-14T03:13:24.096Z,8.60
2022-09-14T03:15:51.135Z,11.13
2022-09-14T03:18:18.385Z,9.02
2022-09-14T03:20:45.397Z,8.85
2022-09-14T03:23:13.001Z,8.80
2022-09-14T03:25:41.998Z,8.43
2022-09-14T03:28:09.950Z,8.63
2022-09-14T03:30:36.862Z,9.20
2022-09-14T03:33:03.879Z,9.10
2022-09-14T03:35:31.469Z,8.65
2022-09-14T03:37:59.721Z,8.98
2022-09-14T03:40:27.248Z,9.13
2022-09-14T03:42:54.420Z,10.32
2022-09-14T03:45:21.895Z,9.02
2022-09-14T03:47:49.602Z,8.90
2022-09-14T03:50:18.993Z,10.05
2022-09-14T03:52:45.666Z,9.70
2022-09-14T03:55:12.400Z,8.52
2022-09-14T03:57:39.155Z,8.52
2022-09-14T04:00:08.516Z,8.88
2022-09-14T04:02:35.610Z,8.95
2022-09-14T04:05:02.708Z,13.00
2022-09-14T04:07:29.650Z,9.18
2022-09-14T04:09:56.381Z,10.75
2022-09-14T04:12:23.182Z,9.93
2022-09-14T04:14:50.054Z,9.30
2022-09-14T04:17:17.558Z,8.80
2022-09-14T04:19:44.290Z,8.23
2022-09-14T04:22:11.009Z,8.40
2022-09-14T04:24:37.780Z,8.65
2022-09-14T04:27:04.634Z,8.40
2022-09-14T04:29:31.436Z,8.20
2022-09-14T04:31:58.132Z,8.43
2022-09-14T04:34:25.082Z,9.27
2022-09-14T04:36:52.384Z,8.05
2022-09-14T04:39:19.658Z,9.43
2022-09-14T04:41:46.899Z,7.93
2022-09-14T04:44:13.837Z,7.97
2022-09-14T04:46:46.261Z,8.27
2022-09-14T04:49:15.534Z,8.32
2022-09-14T04:51:42.514Z,8.82
2022-09-14T04:54:13.079Z,7.70
2022-09-14T04:56:40.229Z,8.57
2022-09-14T04:59:07.515Z,8.65
2022-09-14T05:01:37.620Z,7.55
2022-09-14T05:04:05.517Z,7.80
2022-09-14T05:06:34.879Z,7.90
2022-09-14T05:09:04.387Z,8.95
2022-09-14T05:11:33.612Z,8.50
2022-09-14T05:14:03.281Z,8.35
2022-09-14T05:16:32.325Z,8.00
2022-09-14T05:19:02.077Z,8.07
2022-09-14T05:21:30.615Z,8.68
2022-09-14T05:24:03.342Z,11.73
2022-09-14T05:26:32.047Z,9.20
2022-09-14T05:29:01.204Z,8.82
2022-09-14T05:31:29.336Z,8.57
2022-09-14T05:33:56.789Z,10.38
2022-09-14T05:36:23.897Z,10.20
2022-09-14T05:38:51.783Z,9.85
2022-09-14T05:41:19.185Z,9.13
2022-09-14T05:43:46.252Z,11.82
2022-09-14T05:46:15.185Z,9.82
2022-09-14T05:48:42.809Z,16.67
2022-09-14T05:51:17.836Z,13.90
2022-09-14T05:53:52.679Z,9.82
2022-09-14T05:56:21.062Z,8.63
2022-09-14T05:58:48.619Z,10.50
2022-09-14T06:01:20.234Z,9.30
2022-09-14T06:03:48.795Z,8.68
2022-09-14T06:06:18.386Z,15.57
2022-09-14T06:08:45.433Z,8.68
2022-09-14T06:11:15.381Z,17.13
2022-09-14T06:13:42.537Z,10.53
2022-09-14T06:16:12.848Z,9.38
2022-09-14T06:18:41.068Z,10.10
2022-09-14T06:21:09.460Z,11.52
2022-09-14T06:23:36.986Z,10.65
2022-09-14T06:26:05.506Z,8.82
2022-09-14T06:28:33.660Z,8.77
2022-09-14T06:31:03.271Z,8.48
2022-09-14T06:33:30.979Z,8.77
2022-09-14T06:36:12.657Z,9.00
2022-09-14T06:38:40.828Z,9.80
2022-09-14T06:41:09.257Z,9.48
2022-09-14T06:43:38.956Z,9.52
2022-09-14T06:46:07.573Z,10.00
2022-09-14T06:48:37.705Z,12.48
2022-09-14T06:51:18.720Z,9.82
2022-09-14T06:56:13.433Z,9.93
2022-09-14T06:58:40.705Z,9.57
2022-09-14T07:01:11.120Z,10.38
2022-09-14T07:03:39.224Z,12.35
2022-09-14T07:06:08.453Z,9.93
2022-09-14T07:08:36.702Z,9.20
2022-09-14T07:11:04.907Z,10.30
2022-09-14T07:13:32.435Z,9.43
2022-09-14T07:15:59.311Z,9.05
2022-09-14T07:18:33.139Z,9.25
2022-09-14T07:21:09.554Z,8.70
2022-09-14T07:23:37.849Z,9.02
2022-09-14T07:26:16.051Z,10.15
2022-09-14T07:28:44.842Z,10.00
2022-09-14T07:31:21.449Z,8.63
2022-09-14T07:33:49.099Z,10.48
2022-09-14T07:36:15.918Z,9.82
2022-09-14T07:38:52.125Z,9.20
2022-09-14T07:41:21.014Z,8.88
2022-09-14T07:43:51.795Z,9.07
2022-09-14T07:46:19.887Z,9.20
2022-09-14T07:48:47.067Z,9.52
2022-09-14T07:51:14.272Z,9.20
2022-09-14T07:53:42.989Z,9.02
2022-09-14T07:56:11.562Z,9.48
2022-09-14T07:58:38.982Z,8.90
2022-09-14T08:01:08.613Z,9.60
2022-09-14T08:03:42.163Z,9.80
2022-09-14T08:06:20.796Z,9.10
2022-09-14T08:08:49.798Z,9.15
2022-09-14T08:11:19.612Z,8.90
2022-09-14T08:13:52.314Z,8.40
2022-09-14T08:16:20.227Z,8.60
2022-09-14T08:18:48.573Z,8.20
2022-09-14T08:21:17.173Z,8.30
2022-09-14T08:23:45.232Z,7.28
2022-09-14T08:26:18.921Z,8.15
2022-09-14T08:28:46.994Z,8.35
2022-09-14T08:31:15.095Z,8.02
2022-09-14T08:33:44.833Z,8.18
2022-09-14T08:36:13.985Z,8.82
2022-09-14T08:38:42.201Z,9.75
2022-09-14T08:41:32.538Z,8.73
2022-09-14T08:44:11.565Z,10.20
2022-09-14T08:47:01.861Z,9.95
2022-09-14T08:50:02.336Z,8.68
2022-09-14T08:52:29.387Z,9.50
2022-09-14T08:54:59.052Z,8.20
2022-09-14T08:57:48.818Z,7.88
2022-09-14T09:00:20.782Z,9.60
2022-09-14T09:03:15.379Z,9.82
2022-09-14T09:05:45.835Z,8.93
2022-09-14T09:08:35.618Z,7.72
2022-09-14T09:11:05.587Z,8.18
2022-09-14T09:13:37.821Z,7.90
2022-09-14T09:16:09.117Z,7.95
2022-09-14T09:18:41.651Z,8.13
2022-09-14T09:21:18.445Z,7.95
2022-09-14T09:23:46.034Z,8.02
2022-09-14T09:26:15.569Z,7.90
2022-09-14T09:28:48.242Z,9.00
2022-09-14T09:31:16.498Z,8.55
2022-09-14T09:33:46.527Z,9.02
2022-09-14T09:36:14.869Z,8.20
2022-09-14T09:38:41.884Z,8.70
2022-09-14T09:41:20.895Z,9.07
2022-09-14T09:44:02.552Z,10.00
2022-09-14T09:46:34.658Z,9.88
2022-09-14T09:49:21.978Z,9.68
2022-09-14T09:51:50.348Z,9.52
2022-09-14T09:54:16.974Z,9.02
2022-09-14T09:56:49.862Z,8.20
2022-09-14T09:59:37.930Z,7.47
2022-09-14T10:02:23.552Z,7.88
2022-09-14T10:05:01.487Z,8.27
2022-09-14T10:07:30.789Z,7.60
2022-09-14T10:10:12.981Z,8.02
2022-09-14T10:12:50.920Z,8.35
2022-09-14T10:15:22.961Z,7.32
2022-09-14T10:18:13.536Z,8.13
2022-09-14T10:21:08.176Z,7.30
2022-09-14T10:23:37.764Z,8.45
2022-09-14T10:26:10.561Z,8.57
2022-09-14T10:28:38.181Z,8.80
2022-09-14T10:31:19.186Z,8.23
2022-09-14T10:33:56.705Z,7.20
2022-09-14T10:36:26.141Z,7.95
2022-09-14T10:38:58.887Z,7.32
2022-09-14T10:41:58.167Z,7.60
2022-09-14T10:44:47.892Z,7.47
2022-09-14T10:47:45.922Z,6.43
2022-09-14T10:50:15.688Z,8.07
2022-09-14T10:52:45.708Z,8.52
2022-09-14T10:55:36.902Z,6.93
2022-09-14T10:58:33.849Z,8.55
2022-09-14T11:01:23.769Z,6.63
2022-09-14T11:03:56.431Z,6.10
2022-09-14T11:06:48.003Z,6.03
2022-09-14T11:09:17.737Z,7.20
2022-09-14T11:11:55.307Z,7.15
2022-09-14T11:14:41.312Z,7.00
2022-09-14T11:17:16.999Z,7.63
2022-09-14T11:20:20.348Z,7.03
2022-09-14T11:22:59.392Z,7.88
2022-09-14T11:25:45.836Z,7.00
2022-09-14T11:28:36.993Z,7.10
2022-09-14T11:31:17.542Z,5.93
2022-09-14T11:33:56.426Z,6.10
2022-09-14T11:36:25.307Z,7.35
2022-09-14T11:39:06.881Z,7.28
2022-09-14T11:41:51.413Z,6.22
2022-09-14T11:44:41.683Z,6.60
2022-09-14T11:47:27.830Z,6.10
2022-09-14T11:50:10.660Z,6.30
2022-09-14T11:52:37.382Z,7.07
2022-09-14T11:55:10.874Z,6.70
2022-09-14T11:57:38.084Z,9.93
2022-09-14T12:00:45.640Z,6.70
2022-09-14T12:03:22.392Z,6.93
2022-09-14T12:05:50.051Z,6.15
2022-09-14T12:08:37.188Z,6.78
2022-09-14T12:11:10.270Z,6.80
2022-09-14T12:13:37.789Z,7.13
2022-09-14T12:16:09.704Z,6.30
2022-09-14T12:18:38.758Z,8.10
2022-09-14T12:21:07.296Z,8.30
2022-09-14T12:23:41.955Z,6.75
2022-09-14T12:26:14.436Z,7.07
2022-09-14T12:28:50.702Z,6.82
2022-09-14T12:31:39.746Z,7.47
2022-09-14T12:34:16.000Z,6.95
2022-09-14T12:36:42.613Z,7.20
2022-09-14T12:39:25.529Z,6.97
2022-09-14T12:41:52.237Z,6.60
2022-09-14T12:44:41.001Z,7.57
2022-09-14T12:47:30.900Z,6.30
2022-09-14T12:50:04.680Z,7.60
2022-09-14T12:52:57.018Z,7.78
2022-09-14T12:55:59.124Z,6.72
2022-09-14T12:58:46.061Z,6.70
2022-09-14T13:01:37.319Z,6.18
2022-09-14T13:04:11.857Z,7.00
2022-09-14T13:06:44.808Z,7.63
2022-09-14T13:09:22.007Z,8.38
2022-09-14T13:11:54.793Z,7.30
2022-09-14T13:14:25.164Z,7.00
2022-09-14T13:16:52.697Z,7.50
2022-09-14T13:19:31.152Z,7.03
2022-09-14T13:22:01.623Z,7.05
2022-09-14T13:24:34.777Z,6.80
2022-09-14T13:27:03.023Z,6.78
2022-09-14T13:29:31.153Z,6.60
2022-09-14T13:32:03.351Z,7.55
2022-09-14T13:34:34.999Z,6.72
2022-09-14T13:37:02.665Z,6.50
2022-09-14T13:39:31.817Z,6.53
2022-09-14T13:41:59.204Z,7.80
2022-09-14T13:44:31.246Z,6.32
2022-09-14T13:47:01.349Z,6.30
2022-09-14T13:49:28.635Z,7.13
2022-09-14T13:52:30.985Z,6.80
2022-09-14T13:55:31.587Z,6.68
2022-09-14T13:58:24.718Z,7.60
2022-09-14T14:01:04.445Z,8.00
2022-09-14T14:03:39.463Z,7.50
2022-09-14T14:06:21.283Z,7.72
2022-09-14T14:09:01.770Z,7.20
2022-09-14T14:11:37.540Z,6.80
2022-09-14T14:14:16.547Z,7.03
2022-09-14T14:17:21.516Z,6.75
2022-09-14T14:19:49.340Z,7.05
2022-09-14T14:22:18.013Z,6.75
2022-09-14T14:25:11.918Z,7.40
2022-09-14T14:27:37.630Z,7.30
2022-09-14T14:30:20.457Z,7.70
2022-09-14T14:32:51.786Z,7.85
2022-09-14T14:35:22.554Z,8.15
2022-09-14T14:37:50.619Z,7.18
2022-09-14T14:40:19.012Z,8.05
2022-09-14T14:42:46.800Z,8.57
2022-09-14T14:45:22.103Z,7.93
2022-09-14T14:47:52.771Z,9.52
2022-09-14T14:50:26.219Z,8.38
2022-09-14T14:52:53.278Z,8.48
2022-09-14T14:55:21.112Z,8.45
2022-09-14T14:57:49.059Z,7.70
2022-09-14T15:00:20.529Z,8.27
2022-09-14T15:02:47.710Z,8.88
2022-09-14T15:05:14.977Z,7.95
2022-09-14T15:07:41.956Z,7.20
2022-09-14T15:10:13.294Z,7.43
2022-09-14T15:12:40.060Z,6.75
2022-09-14T15:15:11.727Z,6.65
2022-09-14T15:17:38.467Z,7.63
2022-09-14T15:20:05.711Z,8.25
2022-09-14T15:22:32.461Z,7.07
2022-09-14T15:24:59.168Z,7.00
2022-09-14T15:27:25.926Z,6.85
2022-09-14T15:29:52.628Z,7.72
2022-09-14T15:32:19.515Z,7.75
2022-09-14T15:34:47.081Z,7.60
2022-09-14T15:37:13.942Z,7.45
2022-09-14T15:39:40.724Z,7.10
2022-09-14T15:42:07.634Z,7.88
2022-09-14T15:44:35.211Z,8.45
2022-09-14T15:47:02.003Z,8.32
2022-09-14T15:49:28.880Z,16.98
2022-09-14T15:51:57.148Z,8.38
2022-09-14T15:54:25.623Z,8.00
2022-09-14T15:56:55.224Z,9.02
2022-09-14T15:59:22.814Z,8.82
2022-09-14T16:01:49.762Z,8.50
2022-09-14T16:04:17.605Z,8.95
2022-09-14T16:06:45.083Z,8.50
2022-09-14T16:09:13.408Z,8.80
2022-09-14T16:11:40.377Z,9.82
2022-09-14T16:14:08.729Z,8.82
2022-09-14T16:16:36.737Z,8.77
2022-09-14T16:19:12.620Z,9.38
2022-09-14T16:21:40.911Z,9.93
2022-09-14T16:24:10.844Z,9.68
2022-09-14T16:26:38.233Z,10.50
2022-09-14T16:29:08.329Z,9.45
2022-09-14T16:31:37.329Z,9.88
2022-09-14T16:34:07.394Z,9.73
2022-09-14T16:36:38.218Z,10.70
2022-09-14T16:41:33.163Z,11.43
2022-09-14T16:44:02.277Z,11.00
2022-09-14T16:46:30.691Z,11.48
2022-09-14T16:49:00.557Z,10.77
2022-09-14T16:51:29.297Z,12.37
2022-09-14T16:53:56.137Z,12.48
2022-09-14T16:56:25.781Z,14.05
2022-09-14T16:58:54.157Z,14.60
2022-09-14T17:01:24.212Z,16.60
2022-09-14T17:03:53.288Z,19.27
2022-09-14T17:06:23.956Z,17.20
2022-09-14T17:08:53.723Z,17.95
2022-09-14T17:11:20.754Z,17.40
2022-09-14T17:13:47.842Z,16.95
2022-09-14T17:16:20.597Z,17.65
2022-09-14T17:18:49.458Z,17.90
2022-09-14T17:21:21.832Z,18.35
2022-09-14T17:23:49.254Z,15.63
2022-09-14T17:26:19.218Z,16.42
2022-09-14T17:28:47.637Z,17.00
2022-09-14T17:31:17.601Z,14.63
2022-09-14T17:33:44.446Z,14.13
2022-09-14T17:36:11.647Z,15.32
2022-09-14T17:38:41.285Z,14.73
2022-09-14T17:41:14.109Z,14.32
2022-09-14T17:43:41.901Z,14.02
2022-09-14T17:46:12.850Z,14.85
2022-09-14T17:48:41.606Z,13.60
2022-09-14T17:51:11.314Z,12.98
2022-09-14T17:53:39.776Z,13.13
2022-09-14T17:56:11.355Z,12.43
2022-09-14T17:58:39.479Z,13.10
2022-09-14T18:01:10.477Z,12.18
2022-09-14T18:03:39.042Z,12.40
2022-09-14T18:06:07.986Z,12.23
2022-09-14T18:08:35.018Z,10.57
2022-09-14T18:11:07.494Z,11.10
2022-09-14T18:13:34.586Z,11.10
2022-09-14T18:16:01.929Z,11.43
2022-09-14T18:18:28.781Z,11.07
2022-09-14T18:20:58.198Z,11.52
2022-09-14T18:23:24.925Z,14.35
2022-09-14T18:25:51.615Z,13.55
2022-09-14T18:28:18.354Z,12.00
2022-09-14T18:30:46.095Z,13.40
2022-09-14T18:33:13.592Z,12.57
2022-09-14T18:35:40.784Z,12.68
2022-09-14T18:38:07.650Z,13.18
2022-09-14T18:40:35.206Z,12.27
2022-09-14T18:43:02.587Z,12.85
2022-09-14T18:45:30.611Z,12.55
2022-09-14T18:47:57.698Z,12.52
2022-09-14T18:50:25.102Z,11.88
2022-09-14T18:52:52.402Z,11.82
2022-09-14T18:55:19.363Z,15.05
2022-09-14T18:57:49.445Z,15.30
2022-09-14T19:00:18.733Z,14.48
2022-09-14T19:02:52.770Z,12.95
2022-09-14T19:05:19.827Z,13.02
2022-09-14T19:07:46.581Z,11.95
2022-09-14T19:10:14.154Z,12.63
2022-09-14T19:12:41.501Z,12.90
2022-09-14T19:15:08.663Z,11.38
2022-09-14T19:17:35.357Z,12.10
2022-09-14T19:20:03.396Z,12.07
2022-09-14T19:22:30.119Z,12.00
2022-09-14T19:24:56.907Z,11.95
2022-09-14T19:27:23.786Z,11.60
2022-09-14T19:29:52.289Z,11.55
2022-09-14T19:32:19.561Z,11.68
2022-09-14T19:34:46.362Z,11.48
2022-09-14T19:37:13.142Z,13.55
2022-09-14T19:39:42.129Z,12.70
2022-09-14T19:42:08.965Z,13.95
2022-09-14T19:44:35.750Z,14.30
2022-09-14T19:47:02.498Z,14.02
2022-09-14T19:49:29.211Z,13.77
2022-09-14T19:51:56.536Z,14.35
2022-09-14T19:54:23.423Z,13.88
2022-09-14T19:56:50.365Z,12.95
2022-09-14T19:59:17.092Z,14.80
2022-09-14T20:01:44.495Z,14.70
2022-09-14T20:04:11.778Z,14.63
2022-09-14T20:06:42.619Z,13.38
2022-09-14T20:11:43.494Z,14.32
2022-09-14T20:14:13.410Z,13.25
2022-09-14T20:16:42.831Z,14.13
2022-09-14T20:19:12.408Z,13.95
2022-09-14T20:21:50.518Z,13.63
2022-09-14T20:24:26.135Z,14.07
2022-09-14T20:26:55.776Z,14.93
2022-09-14T20:29:24.415Z,15.38
2022-09-14T20:31:52.093Z,14.30
2022-09-14T20:34:20.636Z,14.07
2022-09-14T20:36:51.393Z,14.25
2022-09-14T20:39:20.038Z,18.40
2022-09-14T20:41:46.865Z,14.77
2022-09-14T20:44:14.092Z,14.10
2022-09-14T20:46:43.365Z,13.13
2022-09-14T20:49:13.261Z,13.43
2022-09-14T20:51:41.107Z,13.90
2022-09-14T20:54:10.899Z,15.00
2022-09-14T20:56:38.070Z,16.15
2022-09-14T20:59:08.333Z,13.38
2022-09-14T21:01:37.155Z,17.08
2022-09-14T21:04:18.851Z,14.82
2022-09-14T21:06:48.567Z,14.23
2022-09-14T21:09:17.985Z,16.50
2022-09-14T21:11:45.916Z,15.07
2022-09-14T21:14:14.468Z,15.70
2022-09-14T21:16:43.508Z,15.85
2022-09-14T21:19:17.028Z,15.90
2022-09-14T21:21:44.021Z,15.88
2022-09-14T21:24:13.340Z,15.65
2022-09-14T21:26:42.826Z,18.20
2022-09-14T21:29:14.142Z,15.50
2022-09-14T21:31:40.972Z,17.65
2022-09-14T21:34:10.130Z,17.60
2022-09-14T21:36:39.764Z,17.45
2022-09-14T21:39:09.993Z,18.50
2022-09-14T21:41:37.625Z,16.13
2022-09-14T21:44:05.025Z,15.98
2022-09-14T21:46:32.244Z,19.10
2022-09-14T21:48:59.248Z,16.73
2022-09-14T21:51:28.779Z,19.42
2022-09-14T21:54:09.258Z,18.77
2022-09-14T21:56:39.361Z,18.98
2022-09-14T21:59:10.066Z,20.05
2022-09-14T22:01:36.998Z,18.65
2022-09-14T22:04:04.677Z,18.38
2022-09-14T22:06:32.359Z,17.73
2022-09-14T22:09:01.063Z,19.92
2022-09-14T22:11:33.012Z,17.27
2022-09-14T22:14:05.850Z,31.50
2022-09-14T22:16:35.125Z,20.85
2022-09-14T22:19:05.463Z,22.13
2022-09-14T22:21:34.989Z,20.10
2022-09-14T22:24:04.386Z,21.92
2022-09-14T22:26:33.138Z,22.77
2022-09-14T22:29:00.374Z,21.13
2022-09-14T22:31:28.783Z,21.38
2022-09-14T22:33:57.202Z,25.30
2022-09-14T22:36:25.602Z,20.75
2022-09-14T22:38:55.709Z,21.95
2022-09-14T22:41:23.933Z,22.70
2022-09-14T22:43:50.641Z,22.10
2022-09-14T22:46:18.042Z,21.63
2022-09-14T22:48:45.693Z,22.58
2022-09-14T22:51:20.484Z,23.58
2022-09-14T22:53:47.663Z,25.85
2022-09-14T22:56:23.741Z,21.92
2022-09-14T22:58:50.994Z,23.63
2022-09-14T23:01:21.446Z,21.02
2022-09-14T23:03:48.850Z,25.80
2022-09-14T23:06:15.547Z,22.10
2022-09-14T23:08:42.612Z,25.88
2022-09-14T23:11:11.667Z,20.35
2022-09-14T23:13:41.454Z,26.17
2022-09-14T23:16:17.312Z,24.63
2022-09-14T23:18:45.407Z,24.23
2022-09-14T23:21:13.165Z,22.10
2022-09-14T23:23:40.378Z,24.50
2022-09-14T23:26:09.625Z,25.10
2022-09-14T23:28:37.058Z,24.90
2022-09-14T23:31:04.661Z,22.13
2022-09-14T23:33:31.992Z,21.52
2022-09-14T23:35:58.683Z,23.27
2022-09-14T23:38:25.516Z,24.13
2022-09-14T23:40:52.406Z,23.05
2022-09-14T23:43:19.615Z,22.55
2022-09-14T23:45:47.427Z,23.77
2022-09-14T23:48:14.971Z,27.35
2022-09-14T23:50:42.030Z,23.73
2022-09-14T23:53:09.061Z,22.77
2022-09-14T23:55:36.178Z,22.27
2022-09-14T23:58:03.640Z,28.73
